sensor_id;sensor_type;location;lat;lon;timestamp;P1;durP1;ratioP1;P2;durP2;ratioP2
1591;SDS011;789;51.612;7.510;2024-02-16T00:02:22;3.47;;;1.90;;
1591;SDS011;789;51.612;7.510;2024-02-16T00:04:48;1.80;;;1.50;;
1591;SDS011;789;51.612;7.510;2024-02-16T00:07:15;5.07;;;2.10;;
1591;SDS011;789;51.612;7.510;2024-02-16T00:09:42;5.30;;;2.20;;
1591;SDS011;789;51.612;7.510;2024-02-16T00:12:10;4.40;;;2.50;;
1591;SDS011;789;51.612;7.510;2024-02-16T00:14:37;2.30;;;2.07;;
1591;SDS011;789;51.612;7.510;2024-02-16T00:17:04;5.90;;;2.70;;
1591;SDS011;789;51.612;7.510;2024-02-16T00:19:32;5.90;;;2.43;;
1591;SDS011;789;51.612;7.510;2024-02-16T00:21:58;3.63;;;2.10;;
1591;SDS011;789;51.612;7.510;2024-02-16T00:24:25;3.07;;;2.00;;
1591;SDS011;789;51.612;7.510;2024-02-16T00:26:52;3.97;;;2.10;;
1591;SDS011;789;51.612;7.510;2024-02-16T00:29:20;3.13;;;1.93;;
1591;SDS011;789;51.612;7.510;2024-02-16T00:31:46;4.20;;;2.23;;
1591;SDS011;789;51.612;7.510;2024-02-16T00:34:13;3.50;;;2.37;;
1591;SDS011;789;51.612;7.510;2024-02-16T00:36:40;2.83;;;2.10;;
1591;SDS011;789;51.612;7.510;2024-02-16T00:39:07;2.73;;;1.73;;
1591;SDS011;789;51.612;7.510;2024-02-16T00:41:34;2.40;;;2.10;;
1591;SDS011;789;51.612;7.510;2024-02-16T00:44:00;3.07;;;1.90;;
1591;SDS011;789;51.612;7.510;2024-02-16T00:46:28;3.73;;;2.20;;
1591;SDS011;789;51.612;7.510;2024-02-16T00:48:56;3.30;;;2.00;;
1591;SDS011;789;51.612;7.510;2024-02-16T00:51:23;3.80;;;1.93;;
1591;SDS011;789;51.612;7.510;2024-02-16T00:53:51;3.73;;;2.40;;
1591;SDS011;789;51.612;7.510;2024-02-16T00:56:17;4.50;;;2.40;;
1591;SDS011;789;51.612;7.510;2024-02-16T00:58:44;4.10;;;2.40;;
1591;SDS011;789;51.612;7.510;2024-02-16T01:01:11;5.73;;;2.43;;
1591;SDS011;789;51.612;7.510;2024-02-16T01:03:40;3.20;;;1.97;;
1591;SDS011;789;51.612;7.510;2024-02-16T01:06:07;3.30;;;1.90;;
1591;SDS011;789;51.612;7.510;2024-02-16T01:08:35;2.93;;;2.07;;
1591;SDS011;789;51.612;7.510;2024-02-16T01:11:02;4.17;;;2.23;;
1591;SDS011;789;51.612;7.510;2024-02-16T01:13:29;5.50;;;2.17;;
1591;SDS011;789;51.612;7.510;2024-02-16T01:15:55;3.60;;;1.97;;
1591;SDS011;789;51.612;7.510;2024-02-16T01:18:23;4.20;;;2.77;;
1591;SDS011;789;51.612;7.510;2024-02-16T01:20:52;5.73;;;2.80;;
1591;SDS011;789;51.612;7.510;2024-02-16T01:23:19;3.50;;;2.20;;
1591;SDS011;789;51.612;7.510;2024-02-16T01:25:46;6.93;;;2.23;;
1591;SDS011;789;51.612;7.510;2024-02-16T01:28:13;6.73;;;2.70;;
1591;SDS011;789;51.612;7.510;2024-02-16T01:30:41;4.37;;;2.53;;
1591;SDS011;789;51.612;7.510;2024-02-16T01:33:08;5.20;;;2.77;;
1591;SDS011;789;51.612;7.510;2024-02-16T01:35:35;3.93;;;2.30;;
1591;SDS011;789;51.612;7.510;2024-02-16T01:38:04;5.00;;;2.83;;
1591;SDS011;789;51.612;7.510;2024-02-16T01:40:30;4.77;;;2.77;;
1591;SDS011;789;51.612;7.510;2024-02-16T01:42:57;3.30;;;2.10;;
1591;SDS011;789;51.612;7.510;2024-02-16T01:45:24;3.63;;;2.37;;
1591;SDS011;789;51.612;7.510;2024-02-16T01:47:51;3.80;;;2.60;;
1591;SDS011;789;51.612;7.510;2024-02-16T01:50:18;3.63;;;2.00;;
1591;SDS011;789;51.612;7.510;2024-02-16T01:52:46;2.77;;;2.40;;
1591;SDS011;789;51.612;7.510;2024-02-16T01:55:15;4.93;;;1.80;;
1591;SDS011;789;51.612;7.510;2024-02-16T01:57:43;3.63;;;2.13;;
1591;SDS011;789;51.612;7.510;2024-02-16T02:00:11;3.40;;;1.90;;
1591;SDS011;789;51.612;7.510;2024-02-16T02:02:40;2.90;;;2.03;;
1591;SDS011;789;51.612;7.510;2024-02-16T02:05:09;2.13;;;1.70;;
1591;SDS011;789;51.612;7.510;2024-02-16T02:07:37;2.03;;;1.77;;
1591;SDS011;789;51.612;7.510;2024-02-16T02:10:04;4.93;;;2.20;;
1591;SDS011;789;51.612;7.510;2024-02-16T02:12:32;2.90;;;2.10;;
1591;SDS011;789;51.612;7.510;2024-02-16T02:14:59;2.80;;;2.10;;
1591;SDS011;789;51.612;7.510;2024-02-16T02:17:26;4.63;;;2.33;;
1591;SDS011;789;51.612;7.510;2024-02-16T02:19:52;2.23;;;1.70;;
1591;SDS011;789;51.612;7.510;2024-02-16T02:22:20;3.33;;;2.00;;
1591;SDS011;789;51.612;7.510;2024-02-16T02:24:47;7.10;;;2.70;;
1591;SDS011;789;51.612;7.510;2024-02-16T02:27:14;3.80;;;2.40;;
1591;SDS011;789;51.612;7.510;2024-02-16T02:29:41;4.43;;;2.10;;
1591;SDS011;789;51.612;7.510;2024-02-16T02:32:09;3.10;;;2.10;;
1591;SDS011;789;51.612;7.510;2024-02-16T02:34:36;3.73;;;2.40;;
1591;SDS011;789;51.612;7.510;2024-02-16T02:37:02;4.33;;;1.90;;
1591;SDS011;789;51.612;7.510;2024-02-16T02:39:31;2.27;;;2.00;;
1591;SDS011;789;51.612;7.510;2024-02-16T02:41:58;2.40;;;2.20;;
1591;SDS011;789;51.612;7.510;2024-02-16T02:44:25;6.33;;;2.17;;
1591;SDS011;789;51.612;7.510;2024-02-16T02:46:52;2.87;;;1.93;;
1591;SDS011;789;51.612;7.510;2024-02-16T02:49:18;5.53;;;1.90;;
1591;SDS011;789;51.612;7.510;2024-02-16T02:51:45;3.23;;;2.00;;
1591;SDS011;789;51.612;7.510;2024-02-16T02:54:12;4.10;;;2.27;;
1591;SDS011;789;51.612;7.510;2024-02-16T02:56:40;4.20;;;1.90;;
1591;SDS011;789;51.612;7.510;2024-02-16T02:59:07;2.13;;;1.90;;
1591;SDS011;789;51.612;7.510;2024-02-16T03:01:35;3.10;;;2.17;;
1591;SDS011;789;51.612;7.510;2024-02-16T03:04:02;2.80;;;1.97;;
1591;SDS011;789;51.612;7.510;2024-02-16T03:06:29;2.73;;;1.90;;
1591;SDS011;789;51.612;7.510;2024-02-16T03:08:56;3.60;;;2.30;;
1591;SDS011;789;51.612;7.510;2024-02-16T03:11:22;4.37;;;2.30;;
1591;SDS011;789;51.612;7.510;2024-02-16T03:13:50;8.53;;;2.97;;
1591;SDS011;789;51.612;7.510;2024-02-16T03:16:18;5.00;;;2.17;;
1591;SDS011;789;51.612;7.510;2024-02-16T03:18:44;5.10;;;2.70;;
1591;SDS011;789;51.612;7.510;2024-02-16T03:21:12;3.20;;;2.40;;
1591;SDS011;789;51.612;7.510;2024-02-16T03:23:41;3.23;;;2.20;;
1591;SDS011;789;51.612;7.510;2024-02-16T03:26:13;4.43;;;2.77;;
1591;SDS011;789;51.612;7.510;2024-02-16T03:28:40;4.10;;;2.37;;
1591;SDS011;789;51.612;7.510;2024-02-16T03:31:15;2.87;;;2.10;;
1591;SDS011;789;51.612;7.510;2024-02-16T03:33:46;4.23;;;2.30;;
1591;SDS011;789;51.612;7.510;2024-02-16T03:36:12;3.90;;;2.60;;
1591;SDS011;789;51.612;7.510;2024-02-16T03:38:40;3.77;;;2.40;;
1591;SDS011;789;51.612;7.510;2024-02-16T03:43:39;4.30;;;2.37;;
1591;SDS011;789;51.612;7.510;2024-02-16T03:46:05;2.97;;;2.50;;
1591;SDS011;789;51.612;7.510;2024-02-16T03:48:34;5.70;;;2.67;;
1591;SDS011;789;51.612;7.510;2024-02-16T03:51:01;3.97;;;2.10;;
1591;SDS011;789;51.612;7.510;2024-02-16T03:53:28;2.63;;;2.00;;
1591;SDS011;789;51.612;7.510;2024-02-16T03:55:54;3.23;;;2.40;;
1591;SDS011;789;51.612;7.510;2024-02-16T03:58:21;4.83;;;3.00;;
1591;SDS011;789;51.612;7.510;2024-02-16T04:00:50;3.73;;;2.33;;
1591;SDS011;789;51.612;7.510;2024-02-16T04:03:17;3.03;;;2.20;;
1591;SDS011;789;51.612;7.510;2024-02-16T04:05:45;4.23;;;2.50;;
1591;SDS011;789;51.612;7.510;2024-02-16T04:08:12;3.40;;;2.43;;
1591;SDS011;789;51.612;7.510;2024-02-16T04:10:39;4.27;;;2.40;;
1591;SDS011;789;51.612;7.510;2024-02-16T04:13:06;3.37;;;2.80;;
1591;SDS011;789;51.612;7.510;2024-02-16T04:15:32;6.30;;;2.47;;
1591;SDS011;789;51.612;7.510;2024-02-16T04:17:59;5.07;;;2.30;;
1591;SDS011;789;51.612;7.510;2024-02-16T04:20:26;6.77;;;2.30;;
1591;SDS011;789;51.612;7.510;2024-02-16T04:22:54;4.50;;;2.20;;
1591;SDS011;789;51.612;7.510;2024-02-16T04:25:20;3.03;;;2.10;;
1591;SDS011;789;51.612;7.510;2024-02-16T04:27:47;3.73;;;2.07;;
1591;SDS011;789;51.612;7.510;2024-02-16T04:30:14;2.43;;;2.23;;
1591;SDS011;789;51.612;7.510;2024-02-16T04:32:41;4.33;;;2.53;;
1591;SDS011;789;51.612;7.510;2024-02-16T04:35:07;5.73;;;2.80;;
1591;SDS011;789;51.612;7.510;2024-02-16T04:37:37;3.70;;;2.63;;
1591;SDS011;789;51.612;7.510;2024-02-16T04:40:06;4.83;;;2.30;;
1591;SDS011;789;51.612;7.510;2024-02-16T04:42:37;4.33;;;2.70;;
1591;SDS011;789;51.612;7.510;2024-02-16T04:45:04;3.43;;;2.63;;
1591;SDS011;789;51.612;7.510;2024-02-16T04:47:32;3.03;;;2.10;;
1591;SDS011;789;51.612;7.510;2024-02-16T04:49:59;5.23;;;2.40;;
1591;SDS011;789;51.612;7.510;2024-02-16T04:52:26;2.53;;;2.23;;
1591;SDS011;789;51.612;7.510;2024-02-16T04:54:52;3.73;;;1.93;;
1591;SDS011;789;51.612;7.510;2024-02-16T04:57:20;5.03;;;2.20;;
1591;SDS011;789;51.612;7.510;2024-02-16T04:59:47;2.13;;;1.83;;
1591;SDS011;789;51.612;7.510;2024-02-16T05:02:14;6.13;;;2.30;;
1591;SDS011;789;51.612;7.510;2024-02-16T05:04:41;8.80;;;3.10;;
1591;SDS011;789;51.612;7.510;2024-02-16T05:07:07;5.07;;;2.27;;
1591;SDS011;789;51.612;7.510;2024-02-16T05:09:34;3.03;;;2.03;;
1591;SDS011;789;51.612;7.510;2024-02-16T05:12:01;7.57;;;2.10;;
1591;SDS011;789;51.612;7.510;2024-02-16T05:14:29;5.80;;;2.27;;
1591;SDS011;789;51.612;7.510;2024-02-16T05:16:56;2.77;;;2.10;;
1591;SDS011;789;51.612;7.510;2024-02-16T05:19:23;9.00;;;2.73;;
1591;SDS011;789;51.612;7.510;2024-02-16T05:21:49;12.07;;;3.53;;
1591;SDS011;789;51.612;7.510;2024-02-16T05:24:16;2.63;;;2.30;;
1591;SDS011;789;51.612;7.510;2024-02-16T05:26:43;2.57;;;2.00;;
1591;SDS011;789;51.612;7.510;2024-02-16T05:29:10;7.50;;;3.47;;
1591;SDS011;789;51.612;7.510;2024-02-16T05:31:38;5.30;;;2.27;;
1591;SDS011;789;51.612;7.510;2024-02-16T05:34:05;7.03;;;2.57;;
1591;SDS011;789;51.612;7.510;2024-02-16T05:36:32;4.10;;;2.10;;
1591;SDS011;789;51.612;7.510;2024-02-16T05:39:01;13.80;;;3.10;;
1591;SDS011;789;51.612;7.510;2024-02-16T05:41:44;5.70;;;2.40;;
1591;SDS011;789;51.612;7.510;2024-02-16T05:44:11;3.93;;;2.10;;
1591;SDS011;789;51.612;7.510;2024-02-16T05:46:39;4.00;;;3.20;;
1591;SDS011;789;51.612;7.510;2024-02-16T05:49:06;3.47;;;2.30;;
1591;SDS011;789;51.612;7.510;2024-02-16T05:51:35;3.80;;;2.80;;
1591;SDS011;789;51.612;7.510;2024-02-16T05:54:11;13.13;;;3.20;;
1591;SDS011;789;51.612;7.510;2024-02-16T05:56:38;3.43;;;2.53;;
1591;SDS011;789;51.612;7.510;2024-02-16T05:59:06;8.30;;;3.57;;
1591;SDS011;789;51.612;7.510;2024-02-16T06:01:32;4.23;;;2.60;;
1591;SDS011;789;51.612;7.510;2024-02-16T06:04:00;4.87;;;2.90;;
1591;SDS011;789;51.612;7.510;2024-02-16T06:06:28;5.23;;;3.20;;
1591;SDS011;789;51.612;7.510;2024-02-16T06:08:54;15.30;;;4.80;;
1591;SDS011;789;51.612;7.510;2024-02-16T06:11:21;9.00;;;4.60;;
1591;SDS011;789;51.612;7.510;2024-02-16T06:13:48;14.03;;;5.67;;
1591;SDS011;789;51.612;7.510;2024-02-16T06:16:14;14.50;;;7.30;;
1591;SDS011;789;51.612;7.510;2024-02-16T06:18:41;18.73;;;6.17;;
1591;SDS011;789;51.612;7.510;2024-02-16T06:21:09;21.10;;;6.27;;
1591;SDS011;789;51.612;7.510;2024-02-16T06:23:38;13.23;;;5.23;;
1591;SDS011;789;51.612;7.510;2024-02-16T06:26:06;24.27;;;5.50;;
1591;SDS011;789;51.612;7.510;2024-02-16T06:28:33;10.40;;;4.20;;
1591;SDS011;789;51.612;7.510;2024-02-16T06:30:59;9.43;;;3.47;;
1591;SDS011;789;51.612;7.510;2024-02-16T06:33:26;7.37;;;3.50;;
1591;SDS011;789;51.612;7.510;2024-02-16T06:35:53;5.20;;;3.23;;
1591;SDS011;789;51.612;7.510;2024-02-16T06:38:21;5.60;;;2.90;;
1591;SDS011;789;51.612;7.510;2024-02-16T06:40:48;6.13;;;3.17;;
1591;SDS011;789;51.612;7.510;2024-02-16T06:43:15;5.03;;;3.27;;
1591;SDS011;789;51.612;7.510;2024-02-16T06:45:41;4.60;;;3.60;;
1591;SDS011;789;51.612;7.510;2024-02-16T06:48:08;5.37;;;3.70;;
1591;SDS011;789;51.612;7.510;2024-02-16T06:50:35;7.90;;;4.37;;
1591;SDS011;789;51.612;7.510;2024-02-16T06:53:03;9.70;;;3.70;;
1591;SDS011;789;51.612;7.510;2024-02-16T06:55:31;6.63;;;3.07;;
1591;SDS011;789;51.612;7.510;2024-02-16T06:57:58;5.67;;;3.60;;
1591;SDS011;789;51.612;7.510;2024-02-16T07:00:25;11.40;;;5.43;;
1591;SDS011;789;51.612;7.510;2024-02-16T07:02:51;8.03;;;3.30;;
1591;SDS011;789;51.612;7.510;2024-02-16T07:05:18;9.30;;;3.20;;
1591;SDS011;789;51.612;7.510;2024-02-16T07:07:45;5.60;;;3.10;;
1591;SDS011;789;51.612;7.510;2024-02-16T07:10:12;6.23;;;2.90;;
1591;SDS011;789;51.612;7.510;2024-02-16T07:12:40;5.60;;;2.33;;
1591;SDS011;789;51.612;7.510;2024-02-16T07:15:07;5.87;;;2.93;;
1591;SDS011;789;51.612;7.510;2024-02-16T07:17:35;5.97;;;3.37;;
1591;SDS011;789;51.612;7.510;2024-02-16T07:20:01;7.10;;;3.97;;
1591;SDS011;789;51.612;7.510;2024-02-16T07:22:29;9.47;;;5.40;;
1591;SDS011;789;51.612;7.510;2024-02-16T07:24:56;10.20;;;4.80;;
1591;SDS011;789;51.612;7.510;2024-02-16T07:27:25;6.10;;;3.70;;
1591;SDS011;789;51.612;7.510;2024-02-16T07:29:53;8.80;;;3.90;;
1591;SDS011;789;51.612;7.510;2024-02-16T07:32:21;12.17;;;4.03;;
1591;SDS011;789;51.612;7.510;2024-02-16T07:34:48;7.50;;;4.27;;
1591;SDS011;789;51.612;7.510;2024-02-16T07:37:15;9.67;;;4.67;;
1591;SDS011;789;51.612;7.510;2024-02-16T07:39:42;7.67;;;3.40;;
1591;SDS011;789;51.612;7.510;2024-02-16T07:42:08;4.60;;;2.87;;
1591;SDS011;789;51.612;7.510;2024-02-16T07:44:35;7.90;;;3.27;;
1591;SDS011;789;51.612;7.510;2024-02-16T07:47:04;6.80;;;3.10;;
1591;SDS011;789;51.612;7.510;2024-02-16T07:49:31;11.33;;;2.90;;
1591;SDS011;789;51.612;7.510;2024-02-16T07:51:58;7.97;;;4.30;;
1591;SDS011;789;51.612;7.510;2024-02-16T07:54:24;17.73;;;6.20;;
1591;SDS011;789;51.612;7.510;2024-02-16T07:56:53;10.57;;;4.50;;
1591;SDS011;789;51.612;7.510;2024-02-16T07:59:19;10.23;;;5.00;;
1591;SDS011;789;51.612;7.510;2024-02-16T08:01:48;18.87;;;4.63;;
1591;SDS011;789;51.612;7.510;2024-02-16T08:04:16;8.20;;;3.47;;
1591;SDS011;789;51.612;7.510;2024-02-16T08:06:43;5.20;;;2.77;;
1591;SDS011;789;51.612;7.510;2024-02-16T08:09:10;12.53;;;3.60;;
1591;SDS011;789;51.612;7.510;2024-02-16T08:11:36;14.93;;;4.27;;
1591;SDS011;789;51.612;7.510;2024-02-16T08:14:03;13.93;;;3.87;;
1591;SDS011;789;51.612;7.510;2024-02-16T08:16:30;12.23;;;3.10;;
1591;SDS011;789;51.612;7.510;2024-02-16T08:18:56;6.60;;;3.20;;
1591;SDS011;789;51.612;7.510;2024-02-16T08:21:24;11.50;;;4.50;;
1591;SDS011;789;51.612;7.510;2024-02-16T08:23:51;6.87;;;3.10;;
1591;SDS011;789;51.612;7.510;2024-02-16T08:26:18;12.40;;;4.27;;
1591;SDS011;789;51.612;7.510;2024-02-16T08:28:45;10.43;;;3.60;;
1591;SDS011;789;51.612;7.510;2024-02-16T08:31:14;9.63;;;3.40;;
1591;SDS011;789;51.612;7.510;2024-02-16T08:33:42;22.20;;;4.70;;
1591;SDS011;789;51.612;7.510;2024-02-16T08:36:10;7.17;;;3.20;;
1591;SDS011;789;51.612;7.510;2024-02-16T08:38:38;13.00;;;3.90;;
1591;SDS011;789;51.612;7.510;2024-02-16T08:41:05;7.87;;;3.20;;
1591;SDS011;789;51.612;7.510;2024-02-16T08:43:32;7.57;;;3.03;;
1591;SDS011;789;51.612;7.510;2024-02-16T08:45:58;6.37;;;3.50;;
1591;SDS011;789;51.612;7.510;2024-02-16T08:48:25;10.13;;;3.70;;
1591;SDS011;789;51.612;7.510;2024-02-16T08:50:52;6.53;;;3.40;;
1591;SDS011;789;51.612;7.510;2024-02-16T08:53:18;5.13;;;3.07;;
1591;SDS011;789;51.612;7.510;2024-02-16T08:55:46;5.50;;;3.30;;
1591;SDS011;789;51.612;7.510;2024-02-16T08:58:13;9.67;;;3.37;;
1591;SDS011;789;51.612;7.510;2024-02-16T09:00:40;9.90;;;4.33;;
1591;SDS011;789;51.612;7.510;2024-02-16T09:03:07;6.83;;;3.23;;
1591;SDS011;789;51.612;7.510;2024-02-16T09:05:33;4.87;;;3.30;;
1591;SDS011;789;51.612;7.510;2024-02-16T09:08:00;7.90;;;2.90;;
1591;SDS011;789;51.612;7.510;2024-02-16T09:10:28;5.63;;;3.23;;
1591;SDS011;789;51.612;7.510;2024-02-16T09:12:56;8.23;;;3.53;;
1591;SDS011;789;51.612;7.510;2024-02-16T09:15:24;5.60;;;3.33;;
1591;SDS011;789;51.612;7.510;2024-02-16T09:17:51;10.57;;;3.30;;
1591;SDS011;789;51.612;7.510;2024-02-16T09:20:18;12.20;;;4.07;;
1591;SDS011;789;51.612;7.510;2024-02-16T09:22:47;6.93;;;3.10;;
1591;SDS011;789;51.612;7.510;2024-02-16T09:25:14;4.70;;;3.10;;
1591;SDS011;789;51.612;7.510;2024-02-16T09:27:41;7.77;;;3.00;;
1591;SDS011;789;51.612;7.510;2024-02-16T09:30:12;7.23;;;3.23;;
1591;SDS011;789;51.612;7.510;2024-02-16T09:32:40;6.00;;;3.50;;
1591;SDS011;789;51.612;7.510;2024-02-16T09:35:07;11.53;;;3.80;;
1591;SDS011;789;51.612;7.510;2024-02-16T09:37:34;6.40;;;3.13;;
1591;SDS011;789;51.612;7.510;2024-02-16T09:40:02;9.00;;;5.27;;
1591;SDS011;789;51.612;7.510;2024-02-16T09:42:29;10.10;;;4.30;;
1591;SDS011;789;51.612;7.510;2024-02-16T09:44:56;8.60;;;3.43;;
1591;SDS011;789;51.612;7.510;2024-02-16T09:47:24;7.43;;;3.33;;
1591;SDS011;789;51.612;7.510;2024-02-16T09:49:55;11.70;;;3.50;;
1591;SDS011;789;51.612;7.510;2024-02-16T09:52:22;9.30;;;3.40;;
1591;SDS011;789;51.612;7.510;2024-02-16T09:54:50;9.60;;;3.80;;
1591;SDS011;789;51.612;7.510;2024-02-16T09:57:16;10.20;;;3.80;;
1591;SDS011;789;51.612;7.510;2024-02-16T09:59:43;8.90;;;3.33;;
1591;SDS011;789;51.612;7.510;2024-02-16T10:02:10;9.37;;;3.37;;
1591;SDS011;789;51.612;7.510;2024-02-16T10:04:38;5.13;;;3.70;;
1591;SDS011;789;51.612;7.510;2024-02-16T10:07:06;9.23;;;3.80;;
1591;SDS011;789;51.612;7.510;2024-02-16T10:09:33;8.50;;;3.50;;
1591;SDS011;789;51.612;7.510;2024-02-16T10:11:59;6.80;;;3.70;;
1591;SDS011;789;51.612;7.510;2024-02-16T10:14:26;10.07;;;3.43;;
1591;SDS011;789;51.612;7.510;2024-02-16T10:17:00;5.93;;;3.73;;
1591;SDS011;789;51.612;7.510;2024-02-16T10:19:27;11.80;;;4.00;;
1591;SDS011;789;51.612;7.510;2024-02-16T10:22:06;10.93;;;3.90;;
1591;SDS011;789;51.612;7.510;2024-02-16T10:24:33;8.70;;;4.20;;
1591;SDS011;789;51.612;7.510;2024-02-16T10:27:00;12.70;;;4.63;;
1591;SDS011;789;51.612;7.510;2024-02-16T10:29:27;6.83;;;3.57;;
1591;SDS011;789;51.612;7.510;2024-02-16T10:31:53;5.53;;;3.80;;
1591;SDS011;789;51.612;7.510;2024-02-16T10:34:20;6.10;;;3.83;;
1591;SDS011;789;51.612;7.510;2024-02-16T10:36:51;6.73;;;3.73;;
1591;SDS011;789;51.612;7.510;2024-02-16T10:39:20;14.77;;;4.20;;
1591;SDS011;789;51.612;7.510;2024-02-16T10:41:47;8.10;;;4.27;;
1591;SDS011;789;51.612;7.510;2024-02-16T10:44:15;7.17;;;4.07;;
1591;SDS011;789;51.612;7.510;2024-02-16T10:46:42;7.03;;;3.80;;
1591;SDS011;789;51.612;7.510;2024-02-16T10:49:09;7.50;;;4.00;;
1591;SDS011;789;51.612;7.510;2024-02-16T10:51:36;8.83;;;3.83;;
1591;SDS011;789;51.612;7.510;2024-02-16T10:54:07;6.20;;;3.70;;
1591;SDS011;789;51.612;7.510;2024-02-16T10:56:37;16.57;;;4.73;;
1591;SDS011;789;51.612;7.510;2024-02-16T10:59:09;11.00;;;4.10;;
1591;SDS011;789;51.612;7.510;2024-02-16T11:01:39;14.13;;;3.50;;
1591;SDS011;789;51.612;7.510;2024-02-16T11:04:08;8.23;;;3.93;;
1591;SDS011;789;51.612;7.510;2024-02-16T11:06:46;7.77;;;3.80;;
1591;SDS011;789;51.612;7.510;2024-02-16T11:09:25;6.73;;;3.97;;
1591;SDS011;789;51.612;7.510;2024-02-16T11:11:54;7.87;;;4.03;;
1591;SDS011;789;51.612;7.510;2024-02-16T11:14:33;8.20;;;4.63;;
1591;SDS011;789;51.612;7.510;2024-02-16T11:17:01;6.30;;;4.23;;
1591;SDS011;789;51.612;7.510;2024-02-16T11:19:29;12.90;;;4.43;;
1591;SDS011;789;51.612;7.510;2024-02-16T11:21:56;11.60;;;4.30;;
1591;SDS011;789;51.612;7.510;2024-02-16T11:24:29;8.60;;;4.10;;
1591;SDS011;789;51.612;7.510;2024-02-16T11:26:58;8.23;;;3.80;;
1591;SDS011;789;51.612;7.510;2024-02-16T11:29:28;9.40;;;4.07;;
1591;SDS011;789;51.612;7.510;2024-02-16T11:32:03;10.87;;;4.40;;
1591;SDS011;789;51.612;7.510;2024-02-16T11:34:39;7.30;;;4.40;;
1591;SDS011;789;51.612;7.510;2024-02-16T11:37:06;5.97;;;4.03;;
1591;SDS011;789;51.612;7.510;2024-02-16T11:39:33;8.30;;;4.30;;
1591;SDS011;789;51.612;7.510;2024-02-16T11:42:04;12.50;;;4.10;;
1591;SDS011;789;51.612;7.510;2024-02-16T11:44:32;7.97;;;3.77;;
1591;SDS011;789;51.612;7.510;2024-02-16T11:47:01;12.23;;;5.00;;
1591;SDS011;789;51.612;7.510;2024-02-16T11:49:30;5.27;;;3.70;;
1591;SDS011;789;51.612;7.510;2024-02-16T11:51:59;9.87;;;4.83;;
1591;SDS011;789;51.612;7.510;2024-02-16T11:54:26;9.23;;;4.20;;
1591;SDS011;789;51.612;7.510;2024-02-16T11:56:53;23.50;;;5.30;;
1591;SDS011;789;51.612;7.510;2024-02-16T11:59:21;21.90;;;5.60;;
1591;SDS011;789;51.612;7.510;2024-02-16T12:01:49;5.47;;;4.20;;
1591;SDS011;789;51.612;7.510;2024-02-16T12:04:21;6.50;;;4.43;;
1591;SDS011;789;51.612;7.510;2024-02-16T12:06:50;12.13;;;4.87;;
1591;SDS011;789;51.612;7.510;2024-02-16T12:09:18;11.90;;;4.97;;
1591;SDS011;789;51.612;7.510;2024-02-16T12:11:46;11.27;;;4.47;;
1591;SDS011;789;51.612;7.510;2024-02-16T12:14:14;7.00;;;4.43;;
1591;SDS011;789;51.612;7.510;2024-02-16T12:16:42;9.00;;;5.00;;
1591;SDS011;789;51.612;7.510;2024-02-16T12:19:12;10.57;;;5.73;;
1591;SDS011;789;51.612;7.510;2024-02-16T12:21:39;9.20;;;4.53;;
1591;SDS011;789;51.612;7.510;2024-02-16T12:24:06;12.90;;;5.97;;
1591;SDS011;789;51.612;7.510;2024-02-16T12:26:33;6.33;;;3.83;;
1591;SDS011;789;51.612;7.510;2024-02-16T12:29:00;7.80;;;4.90;;
1591;SDS011;789;51.612;7.510;2024-02-16T12:31:29;8.03;;;4.43;;
1591;SDS011;789;51.612;7.510;2024-02-16T12:34:01;8.10;;;4.63;;
1591;SDS011;789;51.612;7.510;2024-02-16T12:36:29;18.13;;;5.27;;
1591;SDS011;789;51.612;7.510;2024-02-16T12:38:56;9.33;;;4.70;;
1591;SDS011;789;51.612;7.510;2024-02-16T12:41:22;10.93;;;4.93;;
1591;SDS011;789;51.612;7.510;2024-02-16T12:43:49;8.80;;;4.80;;
1591;SDS011;789;51.612;7.510;2024-02-16T12:46:19;15.93;;;5.50;;
1591;SDS011;789;51.612;7.510;2024-02-16T12:48:46;13.27;;;5.60;;
1591;SDS011;789;51.612;7.510;2024-02-16T12:51:14;6.73;;;4.63;;
1591;SDS011;789;51.612;7.510;2024-02-16T12:53:42;15.00;;;5.77;;
1591;SDS011;789;51.612;7.510;2024-02-16T12:56:09;8.53;;;4.70;;
1591;SDS011;789;51.612;7.510;2024-02-16T12:58:36;16.50;;;6.40;;
1591;SDS011;789;51.612;7.510;2024-02-16T13:01:03;9.27;;;5.60;;
1591;SDS011;789;51.612;7.510;2024-02-16T13:03:32;7.37;;;5.37;;
1591;SDS011;789;51.612;7.510;2024-02-16T13:05:59;9.40;;;5.27;;
1591;SDS011;789;51.612;7.510;2024-02-16T13:08:27;14.80;;;5.30;;
1591;SDS011;789;51.612;7.510;2024-02-16T13:10:54;11.97;;;5.80;;
1591;SDS011;789;51.612;7.510;2024-02-16T13:13:21;14.67;;;5.57;;
1591;SDS011;789;51.612;7.510;2024-02-16T13:15:48;9.07;;;5.07;;
1591;SDS011;789;51.612;7.510;2024-02-16T13:18:15;17.50;;;5.97;;
1591;SDS011;789;51.612;7.510;2024-02-16T13:20:42;7.90;;;5.50;;
1591;SDS011;789;51.612;7.510;2024-02-16T13:23:09;15.10;;;6.00;;
1591;SDS011;789;51.612;7.510;2024-02-16T13:25:37;10.00;;;5.00;;
1591;SDS011;789;51.612;7.510;2024-02-16T13:28:04;7.10;;;5.13;;
1591;SDS011;789;51.612;7.510;2024-02-16T13:30:31;11.23;;;5.40;;
1591;SDS011;789;51.612;7.510;2024-02-16T13:32:58;9.93;;;5.77;;
1591;SDS011;789;51.612;7.510;2024-02-16T13:35:26;10.20;;;5.40;;
1591;SDS011;789;51.612;7.510;2024-02-16T13:37:53;8.27;;;5.20;;
1591;SDS011;789;51.612;7.510;2024-02-16T13:40:21;7.23;;;5.10;;
1591;SDS011;789;51.612;7.510;2024-02-16T13:42:50;9.70;;;5.30;;
1591;SDS011;789;51.612;7.510;2024-02-16T13:45:17;9.40;;;5.20;;
1591;SDS011;789;51.612;7.510;2024-02-16T13:47:43;15.20;;;5.80;;
1591;SDS011;789;51.612;7.510;2024-02-16T13:50:10;13.07;;;6.17;;
1591;SDS011;789;51.612;7.510;2024-02-16T13:52:37;12.77;;;5.83;;
1591;SDS011;789;51.612;7.510;2024-02-16T13:55:10;8.37;;;5.70;;
1591;SDS011;789;51.612;7.510;2024-02-16T13:57:37;10.10;;;5.53;;
1591;SDS011;789;51.612;7.510;2024-02-16T14:00:08;7.33;;;5.70;;
1591;SDS011;789;51.612;7.510;2024-02-16T14:02:35;10.03;;;6.60;;
1591;SDS011;789;51.612;7.510;2024-02-16T14:05:02;13.27;;;6.60;;
1591;SDS011;789;51.612;7.510;2024-02-16T14:07:29;16.07;;;7.20;;
1591;SDS011;789;51.612;7.510;2024-02-16T14:09:56;11.60;;;7.20;;
1591;SDS011;789;51.612;7.510;2024-02-16T14:12:22;8.47;;;6.97;;
1591;SDS011;789;51.612;7.510;2024-02-16T14:14:49;9.93;;;7.43;;
1591;SDS011;789;51.612;7.510;2024-02-16T14:17:18;13.00;;;8.40;;
1591;SDS011;789;51.612;7.510;2024-02-16T14:19:45;12.93;;;8.27;;
1591;SDS011;789;51.612;7.510;2024-02-16T14:22:11;10.27;;;8.10;;
1591;SDS011;789;51.612;7.510;2024-02-16T14:24:38;14.00;;;8.37;;
1591;SDS011;789;51.612;7.510;2024-02-16T14:27:05;12.80;;;8.70;;
1591;SDS011;789;51.612;7.510;2024-02-16T14:29:32;10.27;;;8.40;;
1591;SDS011;789;51.612;7.510;2024-02-16T14:31:58;13.13;;;8.80;;
1591;SDS011;789;51.612;7.510;2024-02-16T14:34:26;14.90;;;9.73;;
1591;SDS011;789;51.612;7.510;2024-02-16T14:36:53;10.93;;;8.90;;
1591;SDS011;789;51.612;7.510;2024-02-16T14:39:20;14.00;;;10.10;;
1591;SDS011;789;51.612;7.510;2024-02-16T14:41:50;15.70;;;11.40;;
1591;SDS011;789;51.612;7.510;2024-02-16T14:44:17;11.73;;;8.90;;
1591;SDS011;789;51.612;7.510;2024-02-16T14:46:43;13.10;;;10.27;;
1591;SDS011;789;51.612;7.510;2024-02-16T14:49:13;14.17;;;11.30;;
1591;SDS011;789;51.612;7.510;2024-02-16T14:51:47;11.93;;;10.70;;
1591;SDS011;789;51.612;7.510;2024-02-16T14:54:14;16.53;;;14.83;;
1591;SDS011;789;51.612;7.510;2024-02-16T14:56:41;18.23;;;15.10;;
1591;SDS011;789;51.612;7.510;2024-02-16T14:59:07;21.60;;;17.70;;
1591;SDS011;789;51.612;7.510;2024-02-16T15:01:35;18.73;;;16.50;;
1591;SDS011;789;51.612;7.510;2024-02-16T15:04:07;18.60;;;16.60;;
1591;SDS011;789;51.612;7.510;2024-02-16T15:06:34;17.37;;;15.60;;
1591;SDS011;789;51.612;7.510;2024-02-16T15:09:03;15.40;;;13.90;;
1591;SDS011;789;51.612;7.510;2024-02-16T15:11:30;16.57;;;14.90;;
1591;SDS011;789;51.612;7.510;2024-02-16T15:13:56;16.40;;;14.63;;
1591;SDS011;789;51.612;7.510;2024-02-16T15:16:23;16.10;;;14.50;;
1591;SDS011;789;51.612;7.510;2024-02-16T15:18:50;15.53;;;13.93;;
1591;SDS011;789;51.612;7.510;2024-02-16T15:21:17;15.73;;;14.23;;
1591;SDS011;789;51.612;7.510;2024-02-16T15:23:43;17.30;;;14.73;;
1591;SDS011;789;51.612;7.510;2024-02-16T15:26:11;15.60;;;13.43;;
1591;SDS011;789;51.612;7.510;2024-02-16T15:28:38;17.17;;;13.83;;
1591;SDS011;789;51.612;7.510;2024-02-16T15:31:06;17.63;;;13.70;;